OIGG

Rasht Airport

Airport
ICAO code
OIGG
IATA Code
RAS
Summary
ICAO Region
MID
ICAO Territory
Location

Rasht, Gilan Province

Serving
Rasht
Elevation
-40 ft
Coordinates
37° 19' 17" N , 49° 36' 59" E
KCC
Metar
Observation
OIGG 070400Z 20008KT 4000 -RA BKN012 FEW015CB OVC060 07/07 Q1027
Station
Rasht
Date/Time
2022-12-07 04:00:00
Wind direction
200°
Wind speed
08 kts
Lowest cloud amount
broken clouds
Temperature
7°C
Dew point
7°C
Humidity
100%
QNH
1027 hPa
Weather condition
n/a

Airport serving the city of Rasht in northern Iran.

Climatology

Mediterranean climate (Köppen climate classification Csa).

Runways

Designator Length Width Surface Rops
9/27 2917 45 ASP No/No

Airport map

Aerial View

SKYbrary Partners:

Safety knowledge contributed by: